TAM8190 SBGR-KMIA
Flight info
| Callsign | TAM8190 |
|---|---|
| Flight time | N/A |
| Altitude | 34000 |
| Route | GERTU UL304 OPNUS UM417 VUDIR/N0493F360 UM417 KONKI UL304 BRUTI UM417 ISUNU UM409 VUMPI UL795 LOGON/N0487F380 UL795 ALTIB UM779 ZEUSS DCT VIICE VIICE2 |
| Aircraft | B77W/H-SDE1E2E3FGHIJ2J3J4J5M1RWXY/LB1D1 |
Departure
| Time | 2026-05-05 05:19 |
|---|---|
| Airport | São Paulo/Guarulhos–Governor André Franco Montoro International Airport (SBGR) |
Arrival
| Time | N/A |
|---|---|
| Airport | Miami International Airport (KMIA) |
| Time | Latitude | Longitude | Altitude | Speed | Heading |
|---|---|---|---|---|---|
| 2026-05-05 04:32 | -23.42502 | -46.47332 | 2449 ft | 0 kts | 255° |
| 2026-05-05 05:03 | -23.42501 | -46.47325 | 2449 ft | 3 kts | 251° |
| 2026-05-05 05:03 | -23.42494 | -46.47309 | 2449 ft | 2 kts | 234° |
| 2026-05-05 05:03 | -23.42485 | -46.47297 | 2449 ft | 2 kts | 222° |
| 2026-05-05 05:04 | -23.42473 | -46.47288 | 2449 ft | 2 kts | 210° |
| 2026-05-05 05:04 | -23.42459 | -46.47281 | 2448 ft | 2 kts | 197° |
| 2026-05-05 05:04 | -23.42448 | -46.47277 | 2448 ft | 2 kts | 187° |
| 2026-05-05 05:04 | -23.42433 | -46.47277 | 2448 ft | 2 kts | 175° |
| 2026-05-05 05:05 | -23.42419 | -46.47279 | 2448 ft | 2 kts | 163° |
| 2026-05-05 05:05 | -23.42404 | -46.47284 | 2448 ft | 2 kts | 162° |
| 2026-05-05 05:05 | -23.42390 | -46.47289 | 2448 ft | 2 kts | 163° |
| 2026-05-05 05:05 | -23.42376 | -46.47293 | 2448 ft | 1 kts | 164° |
| 2026-05-05 05:06 | -23.42375 | -46.47294 | 2447 ft | 0 kts | 164° |
| 2026-05-05 05:10 | -23.42383 | -46.47291 | 2448 ft | 2 kts | 162° |
| 2026-05-05 05:10 | -23.42411 | -46.47279 | 2448 ft | 5 kts | 155° |
| 2026-05-05 05:10 | -23.42444 | -46.47261 | 2448 ft | 5 kts | 153° |
| 2026-05-05 05:11 | -23.42489 | -46.47239 | 2449 ft | 8 kts | 158° |
| 2026-05-05 05:11 | -23.42548 | -46.47216 | 2450 ft | 9 kts | 162° |
| 2026-05-05 05:11 | -23.42615 | -46.47195 | 2450 ft | 9 kts | 164° |
| 2026-05-05 05:11 | -23.42674 | -46.47177 | 2451 ft | 7 kts | 163° |
| 2026-05-05 05:12 | -23.42729 | -46.47159 | 2452 ft | 8 kts | 163° |
| 2026-05-05 05:12 | -23.42788 | -46.47141 | 2453 ft | 10 kts | 170° |
| 2026-05-05 05:12 | -23.42857 | -46.47185 | 2454 ft | 14 kts | 245° |
| 2026-05-05 05:12 | -23.42886 | -46.47292 | 2455 ft | 15 kts | 253° |
| 2026-05-05 05:13 | -23.42922 | -46.47424 | 2455 ft | 19 kts | 254° |
| 2026-05-05 05:13 | -23.42959 | -46.47563 | 2456 ft | 18 kts | 253° |
| 2026-05-05 05:13 | -23.42992 | -46.47686 | 2456 ft | 15 kts | 253° |
| 2026-05-05 05:13 | -23.43024 | -46.47800 | 2456 ft | 16 kts | 253° |
| 2026-05-05 05:14 | -23.43056 | -46.47919 | 2457 ft | 15 kts | 253° |
| 2026-05-05 05:14 | -23.43085 | -46.48026 | 2457 ft | 13 kts | 253° |
| 2026-05-05 05:14 | -23.43111 | -46.48121 | 2457 ft | 12 kts | 253° |
| 2026-05-05 05:14 | -23.43134 | -46.48206 | 2457 ft | 10 kts | 253° |
| 2026-05-05 05:15 | -23.43157 | -46.48292 | 2457 ft | 12 kts | 253° |
| 2026-05-05 05:15 | -23.43198 | -46.48376 | 2456 ft | 13 kts | 209° |
| 2026-05-05 05:15 | -23.43273 | -46.48375 | 2457 ft | 0 kts | 165° |
| 2026-05-05 05:16 | -23.43287 | -46.48371 | 2458 ft | 4 kts | 164° |
| 2026-05-05 05:16 | -23.43338 | -46.48355 | 2459 ft | 11 kts | 163° |
| 2026-05-05 05:16 | -23.43400 | -46.48331 | 2460 ft | 4 kts | 133° |
| 2026-05-05 05:17 | -23.43413 | -46.48299 | 2461 ft | 5 kts | 103° |
| 2026-05-05 05:17 | -23.43409 | -46.48256 | 2461 ft | 6 kts | 71° |
| 2026-05-05 05:17 | -23.43399 | -46.48224 | 2462 ft | 0 kts | 72° |
| 2026-05-05 05:18 | -23.43392 | -46.48200 | 2462 ft | 8 kts | 72° |
| 2026-05-05 05:18 | -23.43323 | -46.47947 | 2464 ft | 67 kts | 73° |
| 2026-05-05 05:19 | -23.43127 | -46.47225 | 2461 ft | 130 kts | 73° |
| 2026-05-05 05:19 | -23.42822 | -46.46086 | 2513 ft | 177 kts | 73° |
| 2026-05-05 05:19 | -23.42464 | -46.44761 | 2939 ft | 189 kts | 72° |
| 2026-05-05 05:19 | -23.42093 | -46.43346 | 3556 ft | 202 kts | 74° |
| 2026-05-05 05:20 | -23.41723 | -46.41814 | 4066 ft | 213 kts | 69° |
| 2026-05-05 05:20 | -23.40900 | -46.40508 | 4698 ft | 215 kts | 37° |
| 2026-05-05 05:20 | -23.39522 | -46.39849 | 5187 ft | 225 kts | 6° |
| 2026-05-05 05:20 | -23.37975 | -46.40117 | 5697 ft | 234 kts | 333° |
| 2026-05-05 05:21 | -23.36679 | -46.41290 | 6049 ft | 254 kts | 303° |
| 2026-05-05 05:21 | -23.36012 | -46.43107 | 6596 ft | 268 kts | 278° |
| 2026-05-05 05:21 | -23.35900 | -46.45154 | 7298 ft | 277 kts | 271° |
| 2026-05-05 05:21 | -23.35887 | -46.47228 | 8228 ft | 277 kts | 270° |
| 2026-05-05 05:22 | -23.35884 | -46.49319 | 9025 ft | 281 kts | 270° |
| 2026-05-05 05:22 | -23.35881 | -46.51442 | 9833 ft | 284 kts | 270° |
| 2026-05-05 05:22 | -23.35877 | -46.53604 | 10510 ft | 293 kts | 271° |
| 2026-05-05 05:22 | -23.35506 | -46.55829 | 10898 ft | 312 kts | 292° |
| 2026-05-05 05:23 | -23.34332 | -46.57883 | 11337 ft | 330 kts | 308° |
| 2026-05-05 05:23 | -23.32768 | -46.59788 | 11802 ft | 347 kts | 312° |
| 2026-05-05 05:23 | -23.31035 | -46.61699 | 12308 ft | 362 kts | 313° |
| 2026-05-05 05:23 | -23.29213 | -46.63675 | 12799 ft | 377 kts | 314° |
| 2026-05-05 05:24 | -23.27319 | -46.65726 | 13298 ft | 392 kts | 314° |
| 2026-05-05 05:24 | -23.25371 | -46.67836 | 13996 ft | 400 kts | 314° |
| 2026-05-05 05:24 | -23.23394 | -46.69975 | 14816 ft | 403 kts | 313° |
| 2026-05-05 05:24 | -23.21397 | -46.72138 | 15588 ft | 408 kts | 313° |
| 2026-05-05 05:25 | -23.19379 | -46.74321 | 16320 ft | 413 kts | 313° |
| 2026-05-05 05:25 | -23.17334 | -46.76533 | 17061 ft | 418 kts | 313° |
| 2026-05-05 05:25 | -23.15271 | -46.78763 | 17822 ft | 421 kts | 312° |
| 2026-05-05 05:25 | -23.13189 | -46.81013 | 18540 ft | 426 kts | 312° |
| 2026-05-05 05:26 | -23.11076 | -46.83296 | 19223 ft | 431 kts | 312° |
| 2026-05-05 05:26 | -23.08944 | -46.85598 | 19910 ft | 436 kts | 311° |
| 2026-05-05 05:26 | -23.06787 | -46.87926 | 20605 ft | 440 kts | 311° |
| 2026-05-05 05:26 | -23.04608 | -46.90277 | 21290 ft | 445 kts | 311° |
| 2026-05-05 05:27 | -23.02405 | -46.92652 | 21952 ft | 449 kts | 311° |
| 2026-05-05 05:27 | -23.00175 | -46.95055 | 22586 ft | 454 kts | 311° |
| 2026-05-05 05:27 | -22.95673 | -46.99903 | 23953 ft | 460 kts | 311° |
| 2026-05-05 05:28 | -22.93409 | -47.02339 | 24681 ft | 461 kts | 311° |
| 2026-05-05 05:28 | -22.91131 | -47.04789 | 25310 ft | 465 kts | 311° |
| 2026-05-05 05:28 | -22.88836 | -47.07256 | 25862 ft | 470 kts | 311° |
| 2026-05-05 05:28 | -22.86510 | -47.09755 | 26437 ft | 474 kts | 310° |
| 2026-05-05 05:29 | -22.84168 | -47.12270 | 27001 ft | 478 kts | 310° |
| 2026-05-05 05:29 | -22.81811 | -47.14800 | 27587 ft | 481 kts | 310° |
| 2026-05-05 05:29 | -22.79429 | -47.17355 | 28214 ft | 483 kts | 310° |
| 2026-05-05 05:29 | -22.77043 | -47.19913 | 28807 ft | 485 kts | 310° |
| 2026-05-05 05:30 | -22.74649 | -47.22478 | 29324 ft | 489 kts | 310° |
| 2026-05-05 05:30 | -22.72224 | -47.25076 | 29945 ft | 491 kts | 310° |
| 2026-05-05 05:30 | -22.69809 | -47.27660 | 30704 ft | 489 kts | 310° |
| 2026-05-05 05:30 | -22.67418 | -47.30216 | 31562 ft | 484 kts | 310° |
| 2026-05-05 05:31 | -22.65039 | -47.32757 | 32386 ft | 479 kts | 310° |
| 2026-05-05 05:31 | -22.62686 | -47.35272 | 33006 ft | 478 kts | 309° |
| 2026-05-05 05:31 | -22.60326 | -47.37793 | 33538 ft | 478 kts | 309° |
| 2026-05-05 05:31 | -22.57960 | -47.40320 | 34064 ft | 478 kts | 309° |
| 2026-05-05 05:32 | -22.55591 | -47.42850 | 34166 ft | 480 kts | 309° |
| 2026-05-05 05:32 | -22.53227 | -47.45370 | 34174 ft | 476 kts | 309° |
| 2026-05-05 05:32 | -22.48536 | -47.50370 | 34172 ft | 474 kts | 309° |
| 2026-05-05 05:33 | -22.43829 | -47.55356 | 34159 ft | 476 kts | 311° |
| 2026-05-05 05:33 | -22.38479 | -47.59656 | 34176 ft | 481 kts | 319° |
| 2026-05-05 05:34 | -22.32972 | -47.63775 | 34175 ft | 483 kts | 319° |
| 2026-05-05 05:34 | -22.27463 | -47.67892 | 34188 ft | 483 kts | 319° |
| 2026-05-05 05:35 | -22.21948 | -47.72011 | 34196 ft | 483 kts | 319° |
| 2026-05-05 05:35 | -22.16446 | -47.76116 | 34200 ft | 481 kts | 319° |
| 2026-05-05 05:36 | -22.10934 | -47.80226 | 34201 ft | 482 kts | 319° |
| 2026-05-05 05:36 | -22.05440 | -47.84317 | 34199 ft | 480 kts | 319° |
| 2026-05-05 05:37 | -21.99949 | -47.88404 | 34194 ft | 481 kts | 319° |
| 2026-05-05 05:37 | -21.94455 | -47.92489 | 34187 ft | 481 kts | 319° |
| 2026-05-05 05:38 | -21.88966 | -47.96565 | 34174 ft | 480 kts | 319° |
| 2026-05-05 05:38 | -21.83465 | -48.00648 | 34164 ft | 481 kts | 319° |
| 2026-05-05 05:39 | -21.77974 | -48.04724 | 34157 ft | 479 kts | 318° |
| 2026-05-05 05:39 | -21.72531 | -48.08883 | 34156 ft | 481 kts | 318° |
| 2026-05-05 05:40 | -21.67092 | -48.13041 | 34152 ft | 479 kts | 318° |
| 2026-05-05 05:40 | -21.61650 | -48.17193 | 34153 ft | 480 kts | 318° |
| 2026-05-05 05:41 | -21.56213 | -48.21336 | 34154 ft | 480 kts | 318° |
| 2026-05-05 05:41 | -21.50790 | -48.25463 | 34149 ft | 478 kts | 318° |
| 2026-05-05 05:42 | -21.45351 | -48.29598 | 34148 ft | 480 kts | 318° |
| 2026-05-05 05:42 | -21.39903 | -48.33735 | 34148 ft | 481 kts | 318° |
| 2026-05-05 05:43 | -21.34452 | -48.37871 | 34146 ft | 482 kts | 318° |
| 2026-05-05 05:43 | -21.28983 | -48.42017 | 34147 ft | 481 kts | 318° |
| 2026-05-05 05:44 | -21.23540 | -48.46138 | 34149 ft | 480 kts | 318° |
| 2026-05-05 05:44 | -21.18075 | -48.50274 | 34148 ft | 482 kts | 318° |
| 2026-05-05 05:45 | -21.12615 | -48.54400 | 34147 ft | 480 kts | 319° |
| 2026-05-05 05:45 | -21.07163 | -48.58517 | 34143 ft | 480 kts | 319° |
| 2026-05-05 05:46 | -21.01709 | -48.62632 | 34136 ft | 479 kts | 319° |
| 2026-05-05 05:46 | -20.96260 | -48.66740 | 34144 ft | 481 kts | 319° |
| 2026-05-05 05:47 | -20.90793 | -48.70858 | 34140 ft | 481 kts | 319° |
| 2026-05-05 05:47 | -20.85322 | -48.74974 | 34133 ft | 481 kts | 319° |
| 2026-05-05 05:48 | -20.79826 | -48.79106 | 34131 ft | 482 kts | 319° |
| 2026-05-05 05:48 | -20.74334 | -48.83231 | 34124 ft | 486 kts | 319° |
| 2026-05-05 05:49 | -20.68697 | -48.87465 | 34119 ft | 502 kts | 319° |
| 2026-05-05 05:49 | -20.62929 | -48.91789 | 34119 ft | 509 kts | 320° |
| 2026-05-05 05:50 | -20.57136 | -48.96124 | 34117 ft | 507 kts | 320° |
| 2026-05-05 05:50 | -20.51350 | -49.00452 | 34112 ft | 510 kts | 320° |
| 2026-05-05 05:51 | -20.45548 | -49.04787 | 34108 ft | 509 kts | 319° |
| 2026-05-05 05:51 | -20.39741 | -49.09123 | 34108 ft | 510 kts | 320° |
| 2026-05-05 05:52 | -20.33924 | -49.13463 | 34109 ft | 511 kts | 320° |
| 2026-05-05 05:52 | -20.28113 | -49.17794 | 34104 ft | 511 kts | 320° |
| 2026-05-05 05:53 | -20.22288 | -49.22131 | 34095 ft | 511 kts | 320° |
| 2026-05-05 05:53 | -20.16460 | -49.26466 | 34102 ft | 512 kts | 319° |
| 2026-05-05 05:54 | -20.10639 | -49.30792 | 34095 ft | 510 kts | 319° |
| 2026-05-05 05:54 | -20.04813 | -49.35119 | 34098 ft | 510 kts | 319° |
| 2026-05-05 05:55 | -19.98996 | -49.39434 | 34100 ft | 510 kts | 319° |
| 2026-05-05 05:55 | -19.93183 | -49.43742 | 34098 ft | 511 kts | 319° |
| 2026-05-05 05:56 | -19.87350 | -49.48063 | 34089 ft | 512 kts | 319° |
| 2026-05-05 05:56 | -19.81518 | -49.52377 | 34096 ft | 512 kts | 319° |
| 2026-05-05 05:57 | -19.75669 | -49.56702 | 34093 ft | 515 kts | 319° |
| 2026-05-05 05:57 | -19.69807 | -49.61030 | 34085 ft | 514 kts | 319° |
| 2026-05-05 05:58 | -19.63915 | -49.65378 | 34096 ft | 516 kts | 319° |
| 2026-05-05 05:58 | -19.58019 | -49.69725 | 34109 ft | 516 kts | 319° |
| 2026-05-05 05:59 | -19.52117 | -49.74071 | 34117 ft | 517 kts | 319° |
| 2026-05-05 05:59 | -19.46219 | -49.78410 | 34108 ft | 517 kts | 319° |
| 2026-05-05 06:00 | -19.40292 | -49.82768 | 34117 ft | 520 kts | 319° |
| 2026-05-05 06:00 | -19.34353 | -49.87130 | 34116 ft | 519 kts | 319° |
| 2026-05-05 06:01 | -19.28462 | -49.91549 | 34121 ft | 518 kts | 318° |
| 2026-05-05 06:01 | -19.22578 | -49.95985 | 34116 ft | 520 kts | 318° |
| 2026-05-05 06:02 | -19.16690 | -50.00414 | 34122 ft | 519 kts | 318° |
| 2026-05-05 06:02 | -19.10777 | -50.04859 | 34124 ft | 521 kts | 318° |
| 2026-05-05 06:03 | -19.04859 | -50.09300 | 34137 ft | 523 kts | 317° |
| 2026-05-05 06:03 | -18.98914 | -50.13757 | 34133 ft | 521 kts | 317° |
| 2026-05-05 06:04 | -18.92962 | -50.18215 | 34130 ft | 523 kts | 318° |
| 2026-05-05 06:04 | -18.86919 | -50.22533 | 34117 ft | 525 kts | 319° |
| 2026-05-05 06:05 | -18.80823 | -50.26852 | 34113 ft | 524 kts | 319° |
| 2026-05-05 06:05 | -18.74780 | -50.31137 | 34116 ft | 524 kts | 319° |
| 2026-05-05 06:06 | -18.68739 | -50.35422 | 34114 ft | 526 kts | 319° |
| 2026-05-05 06:06 | -18.62673 | -50.39722 | 34109 ft | 525 kts | 319° |
| 2026-05-05 06:07 | -18.56601 | -50.44024 | 34101 ft | 525 kts | 319° |
| 2026-05-05 06:07 | -18.50525 | -50.48326 | 34105 ft | 527 kts | 319° |
| 2026-05-05 06:08 | -18.44474 | -50.52656 | 34113 ft | 525 kts | 318° |
| 2026-05-05 06:08 | -18.38450 | -50.57024 | 34124 ft | 527 kts | 318° |
| 2026-05-05 06:09 | -18.32425 | -50.61384 | 34131 ft | 525 kts | 318° |
| 2026-05-05 06:09 | -18.26417 | -50.65727 | 34154 ft | 524 kts | 319° |
| 2026-05-05 06:10 | -18.20405 | -50.70068 | 34171 ft | 524 kts | 318° |
| 2026-05-05 06:10 | -18.14392 | -50.74405 | 34164 ft | 524 kts | 319° |
| 2026-05-05 06:11 | -18.08376 | -50.78741 | 34165 ft | 524 kts | 319° |
| 2026-05-05 06:11 | -18.02369 | -50.83066 | 34168 ft | 525 kts | 319° |
| 2026-05-05 06:12 | -17.96349 | -50.87396 | 34169 ft | 523 kts | 319° |
| 2026-05-05 06:12 | -17.90333 | -50.91721 | 34173 ft | 523 kts | 319° |
| 2026-05-05 06:13 | -17.84312 | -50.96043 | 34173 ft | 523 kts | 319° |
| 2026-05-05 06:13 | -17.78286 | -51.00366 | 34174 ft | 523 kts | 319° |
| 2026-05-05 06:14 | -17.72269 | -51.04679 | 34177 ft | 523 kts | 319° |
| 2026-05-05 06:14 | -17.66263 | -51.08979 | 34178 ft | 522 kts | 319° |
| 2026-05-05 06:15 | -17.60256 | -51.13278 | 34181 ft | 523 kts | 319° |
| 2026-05-05 06:15 | -17.54248 | -51.17573 | 34182 ft | 522 kts | 319° |
| 2026-05-05 06:16 | -17.48235 | -51.21869 | 34184 ft | 523 kts | 319° |
| 2026-05-05 06:16 | -17.42229 | -51.26155 | 34183 ft | 523 kts | 319° |
| 2026-05-05 06:17 | -17.36188 | -51.30464 | 34186 ft | 522 kts | 319° |
| 2026-05-05 06:17 | -17.30148 | -51.34776 | 34189 ft | 524 kts | 319° |
| 2026-05-05 06:18 | -17.24132 | -51.39067 | 34191 ft | 522 kts | 319° |
| 2026-05-05 06:18 | -17.18121 | -51.43352 | 34183 ft | 523 kts | 319° |
| 2026-05-05 06:19 | -17.12120 | -51.47625 | 34173 ft | 521 kts | 319° |
| 2026-05-05 06:19 | -17.06118 | -51.51896 | 34162 ft | 521 kts | 319° |
| 2026-05-05 06:20 | -17.00139 | -51.56147 | 34155 ft | 520 kts | 319° |
| 2026-05-05 06:20 | -16.94156 | -51.60398 | 34155 ft | 520 kts | 320° |
| 2026-05-05 06:21 | -16.88169 | -51.64648 | 34147 ft | 521 kts | 320° |
| 2026-05-05 06:21 | -16.82196 | -51.68885 | 34144 ft | 520 kts | 320° |
| 2026-05-05 06:22 | -16.76202 | -51.73131 | 34142 ft | 522 kts | 320° |
| 2026-05-05 06:22 | -16.70206 | -51.77372 | 34136 ft | 520 kts | 320° |
| 2026-05-05 06:23 | -16.64203 | -51.81617 | 34130 ft | 521 kts | 320° |
| 2026-05-05 06:23 | -16.58208 | -51.85852 | 34139 ft | 521 kts | 320° |
| 2026-05-05 06:24 | -16.52210 | -51.90087 | 34136 ft | 521 kts | 320° |
| 2026-05-05 06:24 | -16.46209 | -51.94320 | 34129 ft | 520 kts | 320° |
| 2026-05-05 06:25 | -16.40228 | -51.98536 | 34115 ft | 519 kts | 321° |
| 2026-05-05 06:25 | -16.34253 | -52.02744 | 34113 ft | 519 kts | 321° |
| 2026-05-05 06:26 | -16.28275 | -52.06942 | 34092 ft | 519 kts | 321° |
| 2026-05-05 06:26 | -16.22201 | -52.11039 | 34083 ft | 519 kts | 322° |
| 2026-05-05 06:27 | -16.13102 | -52.17162 | 34079 ft | 520 kts | 322° |
| 2026-05-05 06:28 | -16.07022 | -52.21255 | 34068 ft | 520 kts | 322° |
| 2026-05-05 06:28 | -16.00935 | -52.25352 | 34055 ft | 522 kts | 322° |
| 2026-05-05 06:29 | -15.94854 | -52.29441 | 34056 ft | 519 kts | 322° |
| 2026-05-05 06:29 | -15.88783 | -52.33523 | 34052 ft | 520 kts | 322° |
| 2026-05-05 06:30 | -15.82737 | -52.37585 | 34049 ft | 520 kts | 322° |
| 2026-05-05 06:30 | -15.76656 | -52.41667 | 34059 ft | 520 kts | 322° |
| 2026-05-05 06:31 | -15.70586 | -52.45740 | 34074 ft | 519 kts | 322° |
| 2026-05-05 06:31 | -15.64523 | -52.49805 | 34077 ft | 520 kts | 322° |
| 2026-05-05 06:32 | -15.58447 | -52.53876 | 34077 ft | 520 kts | 322° |
| 2026-05-05 06:32 | -15.52377 | -52.57940 | 34075 ft | 520 kts | 322° |
| 2026-05-05 06:33 | -15.46294 | -52.62010 | 34073 ft | 521 kts | 323° |
| 2026-05-05 06:33 | -15.40203 | -52.66082 | 34076 ft | 521 kts | 323° |
| 2026-05-05 06:34 | -15.34121 | -52.70145 | 34077 ft | 521 kts | 323° |
| 2026-05-05 06:34 | -15.28035 | -52.74208 | 34076 ft | 520 kts | 323° |
| 2026-05-05 06:35 | -15.21951 | -52.78268 | 34073 ft | 521 kts | 323° |
| 2026-05-05 06:35 | -15.15862 | -52.82327 | 34078 ft | 521 kts | 323° |
| 2026-05-05 06:36 | -15.09777 | -52.86381 | 34081 ft | 521 kts | 323° |
| 2026-05-05 06:36 | -15.03691 | -52.90432 | 34080 ft | 520 kts | 323° |
| 2026-05-05 06:37 | -14.97606 | -52.94481 | 34083 ft | 521 kts | 323° |
| 2026-05-05 06:37 | -14.91495 | -52.98544 | 34090 ft | 522 kts | 323° |
| 2026-05-05 06:38 | -14.85391 | -53.02600 | 34088 ft | 522 kts | 323° |
| 2026-05-05 06:38 | -14.79276 | -53.06659 | 34090 ft | 522 kts | 324° |
| 2026-05-05 06:39 | -14.73169 | -53.10712 | 34092 ft | 523 kts | 324° |
| 2026-05-05 06:39 | -14.66947 | -53.14610 | 34096 ft | 524 kts | 327° |
| 2026-05-05 06:40 | -14.60577 | -53.18286 | 34097 ft | 525 kts | 327° |
| 2026-05-05 06:40 | -14.54215 | -53.21971 | 34098 ft | 524 kts | 327° |
| 2026-05-05 06:41 | -14.47859 | -53.25664 | 34095 ft | 525 kts | 327° |
| 2026-05-05 06:41 | -14.41489 | -53.29369 | 34092 ft | 525 kts | 327° |
| 2026-05-05 06:42 | -14.35141 | -53.33063 | 34087 ft | 525 kts | 327° |
| 2026-05-05 06:42 | -14.28762 | -53.36775 | 34082 ft | 526 kts | 327° |
| 2026-05-05 06:43 | -14.22399 | -53.40477 | 34077 ft | 525 kts | 327° |
| 2026-05-05 06:43 | -14.16053 | -53.44167 | 34069 ft | 526 kts | 328° |
| 2026-05-05 06:44 | -14.09696 | -53.47862 | 34064 ft | 525 kts | 328° |
| 2026-05-05 06:44 | -14.03330 | -53.51560 | 34060 ft | 525 kts | 328° |
| 2026-05-05 06:45 | -13.96959 | -53.55257 | 34062 ft | 526 kts | 328° |
| 2026-05-05 06:45 | -13.90577 | -53.58961 | 34064 ft | 527 kts | 328° |
| 2026-05-05 06:46 | -13.84188 | -53.62668 | 34056 ft | 526 kts | 328° |
| 2026-05-05 06:46 | -13.77806 | -53.66369 | 34062 ft | 526 kts | 328° |
| 2026-05-05 06:47 | -13.71433 | -53.70063 | 34062 ft | 525 kts | 328° |
| 2026-05-05 06:47 | -13.65077 | -53.73744 | 34058 ft | 525 kts | 328° |
| 2026-05-05 06:48 | -13.58702 | -53.77434 | 34055 ft | 525 kts | 328° |
| 2026-05-05 06:48 | -13.52342 | -53.81113 | 34053 ft | 525 kts | 328° |
| 2026-05-05 06:49 | -13.45975 | -53.84794 | 34052 ft | 526 kts | 328° |
| 2026-05-05 06:49 | -13.41332 | -53.87477 | 34052 ft | 525 kts | 328° |
| 2026-05-05 06:50 | -13.34966 | -53.91153 | 34052 ft | 524 kts | 328° |
| 2026-05-05 06:50 | -13.29288 | -53.94430 | 34052 ft | 524 kts | 328° |
| 2026-05-05 06:51 | -13.22937 | -53.98093 | 34051 ft | 523 kts | 328° |
| 2026-05-05 06:51 | -13.16582 | -54.01757 | 34049 ft | 524 kts | 329° |
| 2026-05-05 06:52 | -13.10562 | -54.05225 | 34052 ft | 524 kts | 329° |
| 2026-05-05 06:52 | -13.05312 | -54.08249 | 34051 ft | 524 kts | 329° |
| 2026-05-05 06:53 | -12.99729 | -54.11462 | 34051 ft | 524 kts | 329° |
| 2026-05-05 06:53 | -12.94568 | -54.14430 | 34051 ft | 524 kts | 329° |
| 2026-05-05 06:54 | -12.88209 | -54.18083 | 34047 ft | 523 kts | 329° |
| 2026-05-05 06:54 | -12.81861 | -54.21727 | 34041 ft | 523 kts | 329° |
| 2026-05-05 06:55 | -12.75508 | -54.25373 | 34040 ft | 523 kts | 329° |
| 2026-05-05 06:55 | -12.69165 | -54.29010 | 34039 ft | 522 kts | 329° |
| 2026-05-05 06:56 | -12.62831 | -54.32640 | 34037 ft | 521 kts | 329° |
| 2026-05-05 06:56 | -12.56494 | -54.36271 | 34037 ft | 522 kts | 329° |
| 2026-05-05 06:57 | -12.50157 | -54.39900 | 34034 ft | 522 kts | 329° |
| 2026-05-05 06:57 | -12.43825 | -54.43524 | 34030 ft | 521 kts | 329° |
| 2026-05-05 06:58 | -12.37496 | -54.47144 | 34028 ft | 521 kts | 329° |
| 2026-05-05 06:58 | -12.31176 | -54.50757 | 34028 ft | 520 kts | 329° |
| 2026-05-05 06:59 | -12.24857 | -54.54368 | 34031 ft | 520 kts | 329° |
| 2026-05-05 06:59 | -12.18539 | -54.57976 | 34033 ft | 521 kts | 329° |
| 2026-05-05 07:00 | -12.12218 | -54.61584 | 34037 ft | 520 kts | 329° |
| 2026-05-05 07:00 | -12.05868 | -54.65206 | 34042 ft | 520 kts | 329° |
| 2026-05-05 07:01 | -11.99555 | -54.68806 | 34050 ft | 519 kts | 329° |
| 2026-05-05 07:01 | -11.93247 | -54.72401 | 34051 ft | 518 kts | 329° |
| 2026-05-05 07:02 | -11.86956 | -54.75984 | 34051 ft | 518 kts | 329° |
| 2026-05-05 07:02 | -11.80659 | -54.79569 | 34043 ft | 518 kts | 329° |
| 2026-05-05 07:03 | -11.74358 | -54.83153 | 34040 ft | 518 kts | 329° |
| 2026-05-05 07:03 | -11.68058 | -54.86736 | 34039 ft | 518 kts | 330° |
| 2026-05-05 07:04 | -11.61754 | -54.90319 | 34035 ft | 518 kts | 330° |
| 2026-05-05 07:04 | -11.55460 | -54.93894 | 34030 ft | 517 kts | 330° |
| 2026-05-05 07:05 | -11.49155 | -54.97474 | 34028 ft | 517 kts | 330° |
| 2026-05-05 07:05 | -11.42856 | -55.01049 | 34029 ft | 518 kts | 330° |
| 2026-05-05 07:06 | -11.36553 | -55.04624 | 34031 ft | 519 kts | 330° |
| 2026-05-05 07:06 | -11.30234 | -55.08206 | 34031 ft | 518 kts | 330° |
| 2026-05-05 07:07 | -11.23930 | -55.11777 | 34029 ft | 518 kts | 330° |
| 2026-05-05 07:07 | -11.17627 | -55.15347 | 34037 ft | 517 kts | 330° |
| 2026-05-05 07:08 | -11.11340 | -55.18905 | 34035 ft | 516 kts | 330° |
| 2026-05-05 07:08 | -11.05051 | -55.22464 | 34036 ft | 517 kts | 330° |
| 2026-05-05 07:09 | -10.98754 | -55.26023 | 34038 ft | 518 kts | 330° |
| 2026-05-05 07:09 | -10.92458 | -55.29580 | 34037 ft | 519 kts | 330° |
| 2026-05-05 07:10 | -10.86132 | -55.33151 | 34033 ft | 519 kts | 330° |
| 2026-05-05 07:10 | -10.79822 | -55.36713 | 34031 ft | 518 kts | 330° |
| 2026-05-05 07:11 | -10.73526 | -55.40265 | 34028 ft | 518 kts | 330° |
| 2026-05-05 07:11 | -10.67215 | -55.43823 | 34027 ft | 519 kts | 330° |
| 2026-05-05 07:12 | -10.60893 | -55.47386 | 34028 ft | 519 kts | 330° |
| 2026-05-05 07:12 | -10.54568 | -55.50949 | 34031 ft | 520 kts | 330° |
| 2026-05-05 07:13 | -10.48237 | -55.54513 | 34030 ft | 520 kts | 330° |
| 2026-05-05 07:13 | -10.41901 | -55.58079 | 34020 ft | 520 kts | 330° |
| 2026-05-05 07:14 | -10.35567 | -55.61642 | 34013 ft | 520 kts | 330° |
| 2026-05-05 07:14 | -10.29224 | -55.65208 | 34003 ft | 520 kts | 330° |